Gloria d'Oeste, Brazil
Current Conditions -  °F | °C
As of 11:00 PM on Friday 24 Oct 2014 (Local Time) from SBCY Reporting Station
Moderate Rain Moderate Rain  
Wind Chill: 73°   Ceiling: 1000
Heat Index: 73°   Visibility: 4mi
Dew Point: 70°   Wind: 2mph
Humidity: 88%   Direction: 300°WNW
Pressure: 29.94"   Gusts: NA
Location:  15.77°S, 58.22°W
Report Text: SBCY 250200Z 30002KT 7000 RA BKN010 23/21 Q1014 RERA
Loading
Personal Weather Stations






























Interactive Weather Map
Tropical Storm Tracking
New forecast layout! Learn more

10-Day Weather Forecast

Advertisements
Track Severe Weather on mobile